createdAt,value
2023-03-07T00:01:09.833Z,1.00
2023-03-07T00:03:39.184Z,1.00
2023-03-07T00:06:09.746Z,1.00
2023-03-07T00:08:38.380Z,1.00
2023-03-07T00:11:09.547Z,1.00
2023-03-07T00:13:40.261Z,1.00
2023-03-07T00:16:11.594Z,1.00
2023-03-07T00:18:40.230Z,1.00
2023-03-07T00:21:10.389Z,1.00
2023-03-07T00:23:41.246Z,1.00
2023-03-07T00:26:13.103Z,1.00
2023-03-07T00:28:47.938Z,1.00
2023-03-07T00:31:17.158Z,1.00
2023-03-07T00:33:45.784Z,1.00
2023-03-07T00:36:15.983Z,1.00
2023-03-07T00:38:44.876Z,1.00
2023-03-07T00:41:15.116Z,1.00
2023-03-07T00:43:47.246Z,1.00
2023-03-07T00:46:16.700Z,1.00
2023-03-07T00:48:45.519Z,1.00
2023-03-07T00:51:16.460Z,1.00
2023-03-07T00:53:45.688Z,1.00
2023-03-07T00:56:16.041Z,1.00
2023-03-07T00:58:48.466Z,1.00
2023-03-07T01:01:19.304Z,12.80
2023-03-07T01:03:49.751Z,26.90
2023-03-07T01:06:20.617Z,26.60
2023-03-07T01:08:49.703Z,36.10
2023-03-07T01:11:18.582Z,45.90
2023-03-07T01:13:48.933Z,52.60
2023-03-07T01:16:19.942Z,74.30
2023-03-07T01:18:51.662Z,99.90
2023-03-07T01:21:22.238Z,99.90
2023-03-07T01:23:52.044Z,99.90
2023-03-07T01:26:22.838Z,99.90
2023-03-07T01:28:54.825Z,99.90
2023-03-07T01:31:23.849Z,99.90
2023-03-07T01:33:54.189Z,99.90
2023-03-07T01:36:25.543Z,99.90
2023-03-07T01:38:56.780Z,99.90
2023-03-07T01:41:29.771Z,99.90
2023-03-07T01:44:00.118Z,99.90
2023-03-07T01:46:41.813Z,99.90
2023-03-07T01:49:17.204Z,1.00
2023-03-07T01:51:50.377Z,1.00
2023-03-07T01:54:21.448Z,1.00
2023-03-07T01:56:52.250Z,1.00
2023-03-07T01:59:29.534Z,1.00
2023-03-07T02:02:01.417Z,1.00
2023-03-07T02:04:39.029Z,1.00
2023-03-07T02:07:10.567Z,1.00
2023-03-07T02:45:08.023Z,1.00
2023-03-07T02:47:38.007Z,1.00
2023-03-07T02:50:08.280Z,1.00
2023-03-07T02:52:40.154Z,1.00
2023-03-07T02:55:10.278Z,1.00
2023-03-07T02:57:43.293Z,99.90
2023-03-07T03:00:14.729Z,1.00
2023-03-07T03:02:43.501Z,1.00
2023-03-07T03:05:12.032Z,1.00
2023-03-07T03:07:40.581Z,1.00
2023-03-07T03:10:10.060Z,1.00
2023-03-07T03:12:38.752Z,1.00
2023-03-07T03:15:09.576Z,99.90
2023-03-07T03:17:40.141Z,99.90
2023-03-07T03:20:12.793Z,89.60
2023-03-07T03:22:42.009Z,99.90
2023-03-07T03:25:14.803Z,99.90
2023-03-07T03:27:45.603Z,99.90
2023-03-07T03:30:15.489Z,87.80
2023-03-07T03:32:45.796Z,99.90
2023-03-07T03:35:16.572Z,99.90
2023-03-07T03:37:46.508Z,99.90
2023-03-07T03:40:17.838Z,99.90
2023-03-07T03:42:48.278Z,1.00
2023-03-07T03:45:19.587Z,1.00
2023-03-07T03:47:50.584Z,1.00
2023-03-07T03:50:19.440Z,1.00
2023-03-07T03:52:47.994Z,1.00
2023-03-07T03:55:16.780Z,1.00
2023-03-07T03:57:45.384Z,99.90
2023-03-07T04:00:15.955Z,99.90
2023-03-07T04:02:44.979Z,99.90
2023-03-07T04:05:18.889Z,99.90
2023-03-07T04:07:47.469Z,99.90
2023-03-07T04:10:16.303Z,99.90
2023-03-07T04:12:46.824Z,99.90
2023-03-07T04:15:15.442Z,99.90
2023-03-07T04:17:43.980Z,99.90
2023-03-07T04:20:17.682Z,99.90
2023-03-07T04:22:49.513Z,99.90
2023-03-07T04:25:20.128Z,99.90
2023-03-07T04:27:49.114Z,99.90
2023-03-07T04:30:18.106Z,99.90
2023-03-07T04:32:46.851Z,99.90
2023-03-07T04:35:15.453Z,99.90
2023-03-07T04:37:43.964Z,99.90
2023-03-07T04:40:14.876Z,99.90
2023-03-07T04:42:43.450Z,99.90
2023-03-07T04:45:13.210Z,99.90
2023-03-07T04:47:41.880Z,99.90
2023-03-07T04:50:12.456Z,99.90
2023-03-07T04:52:44.068Z,99.90
2023-03-07T04:55:15.065Z,99.90
2023-03-07T04:57:43.749Z,99.90
2023-03-07T05:00:15.511Z,99.90
2023-03-07T05:02:44.807Z,99.90
2023-03-07T05:05:13.527Z,99.90
2023-03-07T05:07:43.521Z,99.90
2023-03-07T05:10:14.437Z,99.90
2023-03-07T05:12:43.013Z,99.90
2023-03-07T05:15:13.358Z,99.90
2023-03-07T05:17:41.984Z,99.90
2023-03-07T05:20:13.038Z,99.90
2023-03-07T05:22:42.952Z,99.90
2023-03-07T05:25:13.545Z,99.90
2023-03-07T05:27:43.176Z,99.90
2023-03-07T05:30:12.843Z,99.90
2023-03-07T05:32:41.474Z,99.90
2023-03-07T05:35:13.180Z,99.90
2023-03-07T05:37:43.324Z,99.90
2023-03-07T05:40:15.484Z,99.90
2023-03-07T05:42:47.855Z,99.90
2023-03-07T05:45:17.284Z,99.90
2023-03-07T05:47:46.128Z,99.90
2023-03-07T05:50:15.603Z,99.90
2023-03-07T05:52:44.603Z,99.90
2023-03-07T05:55:14.552Z,99.90
2023-03-07T05:57:43.090Z,99.90
2023-03-07T06:00:12.824Z,99.90
2023-03-07T06:02:49.476Z,99.90
2023-03-07T06:05:18.272Z,99.90
2023-03-07T06:07:46.793Z,99.90
2023-03-07T06:10:18.768Z,99.90
2023-03-07T06:12:51.465Z,99.90
2023-03-07T06:15:20.402Z,99.90
2023-03-07T06:17:52.695Z,99.90
2023-03-07T06:20:22.028Z,99.90
2023-03-07T06:22:51.860Z,99.90
2023-03-07T06:25:22.206Z,99.90
2023-03-07T06:27:51.500Z,99.90
2023-03-07T06:30:20.055Z,99.90
2023-03-07T06:32:48.602Z,99.90
2023-03-07T06:35:17.371Z,99.90
2023-03-07T06:37:46.203Z,99.90
2023-03-07T06:40:14.808Z,99.90
2023-03-07T06:42:44.842Z,99.90
2023-03-07T06:45:13.637Z,99.90
2023-03-07T06:47:42.221Z,99.90
2023-03-07T06:50:12.691Z,99.90
2023-03-07T06:52:42.177Z,99.90
2023-03-07T06:55:11.776Z,99.90
2023-03-07T06:57:40.522Z,99.90
2023-03-07T07:00:12.369Z,99.90
2023-03-07T07:02:41.147Z,99.90
2023-03-07T07:05:10.491Z,99.90
2023-03-07T07:07:39.316Z,99.90
2023-03-07T07:10:08.234Z,99.90
2023-03-07T07:12:37.053Z,99.90
2023-03-07T07:15:07.150Z,99.90
2023-03-07T07:17:39.050Z,99.90
2023-03-07T07:20:11.389Z,99.90
2023-03-07T07:22:42.225Z,99.90
2023-03-07T07:25:11.525Z,99.90
2023-03-07T07:27:40.917Z,99.90
2023-03-07T07:30:11.014Z,99.90
2023-03-07T07:32:41.300Z,99.90
2023-03-07T07:35:10.639Z,99.90
2023-03-07T07:37:40.367Z,99.90
2023-03-07T07:40:11.299Z,99.90
2023-03-07T07:42:41.145Z,99.90
2023-03-07T07:45:21.150Z,99.90
2023-03-07T07:47:51.584Z,99.90
2023-03-07T07:50:21.695Z,99.90
2023-03-07T07:52:51.201Z,99.90
2023-03-07T07:55:19.785Z,99.90
2023-03-07T07:57:48.766Z,99.90
2023-03-07T08:00:21.364Z,99.90
2023-03-07T08:02:52.470Z,99.90
2023-03-07T08:05:22.599Z,99.90
2023-03-07T08:07:51.482Z,99.90
2023-03-07T08:10:20.604Z,99.90
2023-03-07T08:12:51.694Z,99.90
2023-03-07T08:15:21.677Z,99.90
2023-03-07T08:17:52.650Z,99.90
2023-03-07T08:20:22.580Z,99.90
2023-03-07T08:22:53.006Z,99.90
2023-03-07T08:25:24.037Z,99.90
2023-03-07T08:27:55.134Z,99.90
2023-03-07T08:30:24.455Z,99.90
2023-03-07T08:32:55.509Z,99.90
2023-03-07T08:35:27.103Z,99.90
2023-03-07T08:37:56.574Z,99.90
2023-03-07T08:40:26.311Z,99.90
2023-03-07T08:42:55.290Z,99.90
2023-03-07T08:45:24.341Z,99.90
2023-03-07T08:47:55.898Z,99.90
2023-03-07T08:50:26.269Z,99.90
2023-03-07T08:52:54.979Z,99.90
2023-03-07T08:55:23.514Z,99.90
2023-03-07T08:57:52.087Z,99.80
2023-03-07T09:00:21.364Z,99.90
2023-03-07T09:02:49.940Z,98.70
2023-03-07T09:05:20.306Z,99.10
2023-03-07T09:07:48.983Z,96.00
2023-03-07T09:10:20.471Z,96.80
2023-03-07T09:12:51.154Z,96.20
2023-03-07T09:15:20.000Z,95.00
2023-03-07T09:17:48.550Z,92.90
2023-03-07T09:20:18.100Z,93.50
2023-03-07T09:22:48.131Z,93.30
2023-03-07T09:25:17.811Z,96.10
2023-03-07T09:27:46.859Z,97.00
2023-03-07T09:30:16.013Z,97.70
2023-03-07T09:32:45.123Z,99.20
2023-03-07T09:35:13.661Z,97.80
2023-03-07T09:37:42.401Z,91.10
2023-03-07T09:40:17.588Z,92.70
2023-03-07T09:42:56.276Z,90.30
2023-03-07T09:45:38.826Z,91.50
2023-03-07T09:48:49.104Z,92.10
2023-03-07T09:51:22.603Z,92.00
2023-03-07T09:53:55.256Z,87.50
2023-03-07T09:56:37.342Z,79.40
2023-03-07T09:59:22.350Z,76.10
2023-03-07T10:01:56.769Z,76.20
2023-03-07T10:04:34.169Z,71.60
2023-03-07T10:07:06.202Z,68.00
2023-03-07T10:09:35.154Z,62.80
2023-03-07T10:12:35.625Z,62.00
2023-03-07T10:15:17.105Z,60.00
2023-03-07T10:18:10.606Z,59.00
2023-03-07T10:20:46.807Z,57.60
2023-03-07T10:23:38.905Z,58.30
2023-03-07T10:26:12.250Z,58.80
2023-03-07T10:28:45.262Z,61.10
2023-03-07T10:31:21.758Z,56.90
2023-03-07T10:33:51.636Z,55.60
2023-03-07T10:36:22.406Z,53.60
2023-03-07T10:39:02.995Z,56.00
2023-03-07T10:41:31.965Z,49.20
2023-03-07T10:44:02.028Z,41.30
2023-03-07T10:46:32.040Z,38.40
2023-03-07T10:49:10.613Z,37.70
2023-03-07T10:51:52.894Z,39.00
2023-03-07T10:54:23.524Z,36.40
2023-03-07T10:57:09.478Z,36.00
2023-03-07T10:59:40.974Z,35.80
2023-03-07T11:02:32.512Z,34.30
2023-03-07T11:05:01.621Z,33.60
2023-03-07T11:07:32.678Z,33.60
2023-03-07T11:10:02.805Z,33.30
2023-03-07T11:12:32.073Z,31.80
2023-03-07T11:15:14.230Z,30.10
2023-03-07T11:17:44.950Z,32.50
2023-03-07T11:20:22.713Z,34.50
2023-03-07T11:22:51.906Z,32.80
2023-03-07T11:25:25.419Z,32.60
2023-03-07T11:27:55.935Z,30.00
2023-03-07T11:30:29.871Z,31.40
2023-03-07T11:33:13.649Z,30.30
2023-03-07T11:35:53.050Z,31.30
2023-03-07T11:38:33.362Z,30.30
2023-03-07T11:41:07.167Z,30.90
2023-03-07T11:43:48.005Z,31.10
2023-03-07T11:46:31.717Z,33.10
2023-03-07T11:49:23.251Z,32.50
2023-03-07T11:52:04.333Z,32.10
2023-03-07T11:54:42.246Z,32.00
2023-03-07T11:57:20.456Z,31.30
2023-03-07T12:00:04.524Z,31.50
2023-03-07T12:02:56.442Z,30.20
2023-03-07T12:05:59.652Z,30.30
2023-03-07T12:08:38.773Z,29.70
2023-03-07T12:11:26.655Z,30.30
2023-03-07T12:14:04.705Z,31.30
2023-03-07T12:16:46.113Z,31.00
2023-03-07T12:19:39.874Z,31.00
2023-03-07T12:22:41.018Z,31.90
2023-03-07T12:25:24.834Z,32.70
2023-03-07T12:28:05.010Z,33.20
2023-03-07T12:30:50.494Z,35.10
2023-03-07T12:33:27.508Z,34.80
2023-03-07T12:36:02.354Z,34.70
2023-03-07T12:38:39.060Z,35.60
2023-03-07T12:41:22.164Z,35.60
2023-03-07T12:56:51.169Z,37.60
2023-03-07T12:59:21.827Z,37.80
2023-03-07T13:01:55.201Z,37.70
2023-03-07T13:04:28.744Z,36.50
2023-03-07T13:07:02.494Z,36.50
2023-03-07T13:09:33.478Z,36.80
2023-03-07T13:12:27.185Z,37.00
2023-03-07T13:14:57.845Z,36.80
2023-03-07T13:17:57.901Z,37.00
2023-03-07T13:20:44.418Z,36.00
2023-03-07T13:23:25.649Z,37.40
2023-03-07T13:26:05.930Z,37.60
2023-03-07T13:28:51.609Z,38.60
2023-03-07T13:31:46.980Z,38.30
2023-03-07T13:34:51.798Z,38.60
2023-03-07T13:37:57.944Z,39.90
2023-03-07T13:40:46.487Z,38.90
2023-03-07T13:43:49.948Z,40.10
2023-03-07T13:46:55.753Z,38.40
2023-03-07T13:49:39.252Z,38.80
2023-03-07T13:52:26.076Z,39.00
2023-03-07T13:54:54.849Z,39.20
2023-03-07T13:57:30.947Z,39.50
2023-03-07T13:59:59.669Z,41.30
2023-03-07T14:02:30.380Z,41.80
2023-03-07T14:05:04.524Z,41.90
2023-03-07T14:07:37.282Z,39.80
2023-03-07T14:10:22.283Z,38.80
2023-03-07T14:13:32.819Z,40.10
2023-03-07T14:16:13.871Z,42.50
2023-03-07T14:18:55.225Z,45.10
2023-03-07T14:21:36.067Z,45.60
2023-03-07T14:24:21.396Z,47.20
2023-03-07T14:26:53.161Z,48.60
2023-03-07T14:29:23.763Z,49.80
2023-03-07T14:31:54.356Z,49.70
2023-03-07T14:34:30.228Z,50.20
2023-03-07T14:37:01.279Z,51.90
2023-03-07T14:39:44.906Z,52.10
2023-03-07T14:42:22.954Z,54.40
2023-03-07T14:45:08.461Z,56.80
2023-03-07T14:47:54.523Z,60.30
2023-03-07T14:50:28.698Z,61.70
2023-03-07T14:53:02.412Z,63.90
2023-03-07T14:55:37.422Z,63.50
2023-03-07T14:58:07.047Z,63.80
2023-03-07T15:00:36.352Z,58.40
2023-03-07T15:03:08.591Z,57.70
2023-03-07T15:05:47.541Z,58.30
2023-03-07T15:08:20.665Z,54.00
2023-03-07T15:10:52.137Z,52.70
2023-03-07T15:13:24.788Z,52.20
2023-03-07T15:15:58.706Z,52.10
2023-03-07T15:18:31.279Z,51.90
2023-03-07T15:21:03.386Z,51.70
2023-03-07T15:23:32.030Z,50.60
2023-03-07T15:26:05.145Z,49.90
2023-03-07T15:28:35.884Z,51.20
2023-03-07T15:31:05.478Z,50.90
2023-03-07T15:33:34.994Z,51.80
2023-03-07T15:36:21.941Z,52.50
2023-03-07T15:38:51.864Z,52.90
2023-03-07T15:41:29.793Z,54.60
2023-03-07T15:44:18.579Z,54.70
2023-03-07T15:46:49.825Z,54.60
2023-03-07T15:49:26.036Z,54.50
2023-03-07T15:51:58.323Z,53.90
2023-03-07T15:54:39.977Z,53.90
2023-03-07T15:57:17.063Z,53.80
2023-03-07T15:59:52.031Z,54.20
2023-03-07T16:02:50.979Z,54.20
2023-03-07T16:05:38.224Z,55.20
2023-03-07T16:08:15.894Z,55.80
2023-03-07T16:10:50.949Z,56.40
2023-03-07T16:13:23.013Z,56.80
2023-03-07T16:16:02.771Z,57.30
2023-03-07T16:18:32.712Z,58.00
2023-03-07T16:21:01.338Z,58.60
2023-03-07T16:23:31.482Z,59.40
2023-03-07T16:26:03.816Z,58.70
2023-03-07T16:28:32.654Z,59.60
2023-03-07T16:31:01.369Z,58.80
2023-03-07T16:33:30.033Z,59.40
2023-03-07T16:35:58.672Z,59.80
2023-03-07T16:38:27.243Z,59.10
2023-03-07T16:40:58.056Z,60.80
2023-03-07T16:43:35.493Z,60.90
2023-03-07T16:46:05.553Z,60.70
2023-03-07T16:48:34.956Z,60.60
2023-03-07T16:51:04.488Z,57.20
2023-03-07T16:53:33.380Z,53.80
2023-03-07T16:56:03.362Z,50.80
2023-03-07T16:58:46.337Z,49.00
2023-03-07T17:01:15.900Z,47.80
2023-03-07T17:03:44.486Z,47.40
2023-03-07T17:06:16.550Z,46.80
2023-03-07T17:08:46.856Z,47.60
2023-03-07T17:11:20.984Z,47.70
2023-03-07T17:33:06.446Z,56.60
2023-03-07T17:35:35.616Z,55.30
2023-03-07T17:38:04.149Z,54.80
2023-03-07T17:40:32.679Z,55.00
2023-03-07T17:43:01.419Z,54.80
2023-03-07T17:45:30.124Z,55.10
2023-03-07T17:47:58.677Z,55.80
2023-03-07T17:50:28.695Z,56.00
2023-03-07T17:52:57.550Z,55.80
2023-03-07T17:55:26.298Z,57.10
2023-03-07T17:57:54.882Z,58.70
2023-03-07T18:00:24.161Z,59.20
2023-03-07T18:02:53.331Z,60.40
2023-03-07T18:05:21.935Z,62.70
2023-03-07T18:07:53.622Z,62.80
2023-03-07T18:10:23.020Z,65.70
2023-03-07T18:45:28.384Z,67.10
2023-03-07T18:47:56.910Z,64.80
2023-03-07T18:50:25.430Z,64.80
2023-03-07T18:52:53.968Z,63.60
2023-03-07T18:55:22.503Z,64.00
2023-03-07T18:57:51.050Z,63.50
2023-03-07T19:00:20.381Z,61.20
2023-03-07T19:02:50.331Z,59.60
2023-03-07T19:05:18.946Z,59.30
2023-03-07T19:07:47.485Z,58.90
2023-03-07T19:10:16.050Z,58.70
2023-03-07T19:12:44.599Z,58.20
2023-03-07T19:15:13.263Z,58.40
2023-03-07T19:17:42.528Z,58.40
2023-03-07T19:20:13.503Z,58.40
2023-03-07T19:22:42.134Z,58.50
2023-03-07T19:25:11.045Z,58.90
2023-03-07T19:27:40.675Z,59.00
2023-03-07T19:30:11.340Z,57.10
2023-03-07T19:32:40.715Z,56.80
2023-03-07T19:35:09.792Z,57.10
2023-03-07T19:37:39.744Z,56.80
2023-03-07T19:40:09.771Z,57.40
2023-03-07T19:42:38.316Z,57.60
2023-03-07T19:45:07.818Z,57.70
2023-03-07T19:47:36.780Z,58.60
2023-03-07T19:50:05.841Z,58.90
2023-03-07T19:52:34.467Z,60.10
2023-03-07T19:55:04.772Z,60.50
2023-03-07T19:57:33.314Z,59.80
2023-03-07T20:00:01.998Z,60.30
2023-03-07T20:02:40.252Z,60.70
2023-03-07T20:05:09.445Z,60.50
2023-03-07T20:07:38.264Z,61.30
2023-03-07T20:10:09.700Z,61.30
2023-03-07T20:12:38.341Z,61.70
2023-03-07T20:15:08.494Z,62.80
2023-03-07T20:17:37.062Z,64.30
2023-03-07T20:20:08.073Z,64.50
2023-03-07T20:22:38.820Z,65.70
2023-03-07T20:25:09.947Z,65.30
2023-03-07T20:27:39.534Z,65.20
2023-03-07T20:30:09.462Z,64.30
2023-03-07T20:32:38.122Z,64.10
2023-03-07T20:35:07.261Z,64.30
2023-03-07T20:37:36.136Z,63.40
2023-03-07T20:40:06.437Z,62.20
2023-03-07T20:58:30.889Z,62.30
2023-03-07T21:01:00.167Z,62.30
2023-03-07T21:03:29.435Z,62.20
2023-03-07T21:05:59.674Z,62.10
2023-03-07T21:08:29.857Z,63.00
2023-03-07T21:20:42.029Z,70.70
2023-03-07T21:23:10.552Z,76.30
2023-03-07T21:25:39.304Z,81.50
2023-03-07T21:28:08.510Z,87.20
2023-03-07T21:30:37.969Z,90.60
2023-03-07T21:33:06.569Z,91.60
2023-03-07T21:35:38.404Z,89.10
2023-03-07T21:38:08.676Z,88.40
2023-03-07T21:40:37.246Z,90.20
2023-03-07T21:43:05.908Z,91.40
2023-03-07T21:45:34.567Z,91.40
2023-03-07T21:48:03.203Z,90.20
2023-03-07T21:50:31.984Z,83.60
2023-03-07T21:53:00.652Z,76.00
2023-03-07T21:55:30.615Z,73.00
2023-03-07T21:57:59.174Z,69.20
2023-03-07T22:00:30.218Z,63.80
2023-03-07T22:02:58.840Z,61.00
2023-03-07T22:05:27.522Z,61.10
2023-03-07T22:07:56.126Z,62.40
2023-03-07T22:11:00.330Z,65.80
2023-03-07T22:13:29.381Z,69.50
2023-03-07T22:15:58.411Z,72.10
2023-03-07T22:18:27.470Z,76.00
2023-03-07T22:20:56.102Z,78.90
2023-03-07T22:23:26.578Z,82.10
2023-03-07T22:25:55.677Z,89.60
2023-03-07T22:28:25.666Z,90.00
2023-03-07T22:30:54.299Z,87.30
2023-03-07T22:33:23.031Z,84.90
2023-03-07T22:35:57.365Z,74.00
2023-03-07T22:38:46.053Z,69.10
2023-03-07T22:41:16.909Z,68.30
2023-03-07T22:43:47.150Z,69.80
2023-03-07T22:46:16.033Z,67.30
2023-03-07T22:48:44.559Z,68.50
2023-03-07T22:51:14.409Z,66.50
2023-03-07T22:53:43.014Z,67.40
2023-03-07T22:56:16.663Z,68.30
2023-03-07T22:58:46.545Z,68.80
2023-03-07T23:01:16.471Z,65.70
2023-03-07T23:03:45.186Z,60.00
2023-03-07T23:06:14.776Z,59.30
2023-03-07T23:08:45.919Z,59.70
2023-03-07T23:11:15.114Z,60.70
2023-03-07T23:13:43.697Z,61.30
2023-03-07T23:16:15.403Z,61.50
2023-03-07T23:18:45.186Z,61.40
2023-03-07T23:21:15.643Z,59.30
2023-03-07T23:23:44.704Z,57.90
2023-03-07T23:26:18.560Z,57.90
2023-03-07T23:28:47.176Z,58.10
2023-03-07T23:31:22.084Z,58.00
2023-03-07T23:33:51.184Z,58.00
2023-03-07T23:36:19.653Z,57.80
2023-03-07T23:38:48.134Z,58.50
2023-03-07T23:41:16.701Z,58.80
2023-03-07T23:43:46.452Z,58.80
2023-03-07T23:46:15.052Z,60.60
2023-03-07T23:48:44.930Z,60.60
2023-03-07T23:51:13.992Z,61.80
2023-03-07T23:53:42.495Z,62.80
2023-03-07T23:56:13.144Z,64.00
2023-03-07T23:58:42.240Z,64.50
